Terminal Aerodrome Forecast
Issued by NWS Cleveland, OH

Home | Current Version | Previous Version | Graphics & Text | Print | Product List | Glossary Off
Versions: 1 2 3 4 5 6 7 8 9 10 11 12 13 14 15 16 17 18 19

000
FTUS41 KCLE 200825 AAA
TAFTOL
TAF AMD
KTOL 200825Z 2008/2106 08005KT 4SM -RA BR SCT007 OVC040
     FM200900 08005KT 2SM -RA BR OVC005
     FM201400 10005KT 4SM -RA BR OVC007
     FM201700 24005KT P6SM OVC007
     FM202300 20003KT 4SM BR BKN015=

USA.gov is the U.S. government's official web portal to all federal, state and local government web resources and services.